sensor_id;sensor_type;location;lat;lon;timestamp;pressure;altitude;pressure_sealevel;temperature;humidity
21100;BME280;10708;50.824;4.408;2023-02-12T00:03:30;102859.06;;;8.10;100.00
21100;BME280;10708;50.824;4.408;2023-02-12T00:08:32;102852.94;;;8.11;100.00
21100;BME280;10708;50.824;4.408;2023-02-12T00:13:36;102851.22;;;8.13;100.00
21100;BME280;10708;50.824;4.408;2023-02-12T00:18:40;102853.78;;;8.07;100.00
21100;BME280;10708;50.824;4.408;2023-02-12T00:23:42;102857.28;;;8.06;100.00
21100;BME280;10708;50.824;4.408;2023-02-12T00:28:44;102864.41;;;8.18;100.00
21100;BME280;10708;50.824;4.408;2023-02-12T00:33:48;102853.91;;;8.19;100.00
21100;BME280;10708;50.824;4.408;2023-02-12T00:38:51;102859.06;;;8.08;100.00
21100;BME280;10708;50.824;4.408;2023-02-12T00:43:54;102855.66;;;8.20;100.00
21100;BME280;10708;50.824;4.408;2023-02-12T00:48:58;102855.69;;;8.22;100.00
21100;BME280;10708;50.824;4.408;2023-02-12T00:54:00;102855.72;;;8.25;100.00
21100;BME280;10708;50.824;4.408;2023-02-12T00:59:02;102846.91;;;8.18;100.00
21100;BME280;10708;50.824;4.408;2023-02-12T01:04:06;102848.72;;;8.25;100.00
21100;BME280;10708;50.824;4.408;2023-02-12T01:09:09;102851.38;;;8.30;100.00
21100;BME280;10708;50.824;4.408;2023-02-12T01:14:11;102845.28;;;8.31;100.00
21100;BME280;10708;50.824;4.408;2023-02-12T01:19:15;102851.47;;;8.33;100.00
21100;BME280;10708;50.824;4.408;2023-02-12T01:24:18;102847.94;;;8.32;100.00
21100;BME280;10708;50.824;4.408;2023-02-12T01:29:20;102850.44;;;8.22;100.00
21100;BME280;10708;50.824;4.408;2023-02-12T01:34:24;102852.22;;;8.24;100.00
21100;BME280;10708;50.824;4.408;2023-02-12T01:39:26;102845.19;;;8.22;100.00
21100;BME280;10708;50.824;4.408;2023-02-12T01:44:30;102842.44;;;8.11;100.00
21100;BME280;10708;50.824;4.408;2023-02-12T01:49:38;102844.28;;;8.17;100.00
21100;BME280;10708;50.824;4.408;2023-02-12T01:54:41;102839.03;;;8.20;100.00
21100;BME280;10708;50.824;4.408;2023-02-12T01:59:47;102835.53;;;8.18;100.00
21100;BME280;10708;50.824;4.408;2023-02-12T02:04:57;102831.91;;;8.05;100.00
21100;BME280;10708;50.824;4.408;2023-02-12T02:10:01;102839.91;;;8.17;100.00
21100;BME280;10708;50.824;4.408;2023-02-12T02:15:04;102832.91;;;8.21;100.00
21100;BME280;10708;50.824;4.408;2023-02-12T02:26:15;102823.22;;;8.13;100.00
21100;BME280;10708;50.824;4.408;2023-02-12T02:31:26;102837.19;;;8.08;100.00
21100;BME280;10708;50.824;4.408;2023-02-12T02:36:35;102835.44;;;8.11;100.00
21100;BME280;10708;50.824;4.408;2023-02-12T02:41:44;102831.09;;;8.13;100.00
21100;BME280;10708;50.824;4.408;2023-02-12T02:46:51;102817.16;;;8.18;100.00
21100;BME280;10708;50.824;4.408;2023-02-12T02:51:59;102822.41;;;8.18;100.00
21100;BME280;10708;50.824;4.408;2023-02-12T02:57:08;102822.41;;;8.19;100.00
21100;BME280;10708;50.824;4.408;2023-02-12T03:02:17;102824.16;;;8.17;100.00
21100;BME280;10708;50.824;4.408;2023-02-12T03:07:24;102819.69;;;8.10;100.00
21100;BME280;10708;50.824;4.408;2023-02-12T03:12:30;102817.06;;;8.11;100.00
21100;BME280;10708;50.824;4.408;2023-02-12T03:17:39;102817.97;;;8.13;100.00
21100;BME280;10708;50.824;4.408;2023-02-12T03:22:45;102823.25;;;8.15;100.00
21100;BME280;10708;50.824;4.408;2023-02-12T03:27:56;102818.88;;;8.15;100.00
21100;BME280;10708;50.824;4.408;2023-02-12T03:33:08;102811.00;;;8.15;100.00
21100;BME280;10708;50.824;4.408;2023-02-12T03:38:21;102807.31;;;7.97;100.00
21100;BME280;10708;50.824;4.408;2023-02-12T03:43:31;102804.69;;;7.97;100.00
21100;BME280;10708;50.824;4.408;2023-02-12T03:48:43;102810.84;;;7.97;100.00
21100;BME280;10708;50.824;4.408;2023-02-12T03:53:48;102808.22;;;8.02;100.00
21100;BME280;10708;50.824;4.408;2023-02-12T03:58:50;102809.19;;;8.07;100.00
21100;BME280;10708;50.824;4.408;2023-02-12T04:03:54;102801.03;;;7.83;100.00
21100;BME280;10708;50.824;4.408;2023-02-12T04:09:01;102797.72;;;8.00;100.00
21100;BME280;10708;50.824;4.408;2023-02-12T04:14:14;102801.25;;;8.02;100.00
21100;BME280;10708;50.824;4.408;2023-02-12T04:19:29;102804.59;;;7.86;100.00
21100;BME280;10708;50.824;4.408;2023-02-12T04:24:45;102818.69;;;7.96;100.00
21100;BME280;10708;50.824;4.408;2023-02-12T04:29:53;102825.47;;;7.77;100.00
21100;BME280;10708;50.824;4.408;2023-02-12T04:35:04;102828.19;;;7.85;100.00
21100;BME280;10708;50.824;4.408;2023-02-12T04:40:12;102828.91;;;7.73;100.00
21100;BME280;10708;50.824;4.408;2023-02-12T04:45:20;102830.00;;;7.93;100.00
21100;BME280;10708;50.824;4.408;2023-02-12T04:50:25;102828.28;;;7.94;100.00
21100;BME280;10708;50.824;4.408;2023-02-12T04:55:27;102830.94;;;7.97;100.00
21100;BME280;10708;50.824;4.408;2023-02-12T05:00:30;102829.25;;;8.03;100.00
21100;BME280;10708;50.824;4.408;2023-02-12T05:05:34;102829.06;;;7.87;100.00
21100;BME280;10708;50.824;4.408;2023-02-12T05:10:36;102826.22;;;7.70;100.00
21100;BME280;10708;50.824;4.408;2023-02-12T05:15:38;102823.88;;;7.91;100.00
21100;BME280;10708;50.824;4.408;2023-02-12T05:20:42;102825.56;;;7.86;100.00
21100;BME280;10708;50.824;4.408;2023-02-12T05:25:44;102821.91;;;7.72;100.00
21100;BME280;10708;50.824;4.408;2023-02-12T05:30:46;102825.63;;;7.92;100.00
21100;BME280;10708;50.824;4.408;2023-02-12T05:35:50;102818.59;;;7.90;100.00
21100;BME280;10708;50.824;4.408;2023-02-12T05:40:52;102819.34;;;7.76;100.00
21100;BME280;10708;50.824;4.408;2023-02-12T05:45:57;102831.72;;;7.91;100.00
21100;BME280;10708;50.824;4.408;2023-02-12T05:51:05;102832.66;;;7.95;100.00
21100;BME280;10708;50.824;4.408;2023-02-12T05:56:09;102827.41;;;7.95;100.00
21100;BME280;10708;50.824;4.408;2023-02-12T06:01:14;102830.09;;;7.98;100.00
21100;BME280;10708;50.824;4.408;2023-02-12T06:06:18;102830.97;;;8.01;100.00
21100;BME280;10708;50.824;4.408;2023-02-12T06:11:21;102825.69;;;7.97;100.00
21100;BME280;10708;50.824;4.408;2023-02-12T06:16:25;102828.31;;;7.97;100.00
21100;BME280;10708;50.824;4.408;2023-02-12T06:21:29;102830.91;;;7.95;100.00
21100;BME280;10708;50.824;4.408;2023-02-12T06:26:32;102837.91;;;7.95;100.00
21100;BME280;10708;50.824;4.408;2023-02-12T06:31:35;102840.47;;;7.90;100.00
21100;BME280;10708;50.824;4.408;2023-02-12T06:36:41;102845.78;;;7.95;100.00
21100;BME280;10708;50.824;4.408;2023-02-12T06:41:44;102843.97;;;7.88;100.00
21100;BME280;10708;50.824;4.408;2023-02-12T06:46:47;102849.25;;;7.92;100.00
21100;BME280;10708;50.824;4.408;2023-02-12T06:51:50;102855.34;;;7.88;100.00
21100;BME280;10708;50.824;4.408;2023-02-12T06:56:53;102858.91;;;7.95;100.00
21100;BME280;10708;50.824;4.408;2023-02-12T07:01:55;102864.16;;;7.96;100.00
21100;BME280;10708;50.824;4.408;2023-02-12T07:06:59;102858.03;;;7.96;100.00
21100;BME280;10708;50.824;4.408;2023-02-12T07:12:01;102871.09;;;7.91;100.00
21100;BME280;10708;50.824;4.408;2023-02-12T07:17:03;102873.69;;;7.87;100.00
21100;BME280;10708;50.824;4.408;2023-02-12T07:22:09;102879.88;;;7.93;100.00
21100;BME280;10708;50.824;4.408;2023-02-12T07:27:11;102880.69;;;7.89;100.00
21100;BME280;10708;50.824;4.408;2023-02-12T07:32:13;102891.06;;;7.78;100.00
21100;BME280;10708;50.824;4.408;2023-02-12T07:37:17;102892.06;;;7.87;100.00
21100;BME280;10708;50.824;4.408;2023-02-12T07:42:22;102891.25;;;7.94;100.00
21100;BME280;10708;50.824;4.408;2023-02-12T07:47:24;102884.28;;;7.99;100.00
21100;BME280;10708;50.824;4.408;2023-02-12T07:52:28;102890.50;;;8.04;100.00
21100;BME280;10708;50.824;4.408;2023-02-12T07:57:31;102892.16;;;7.99;100.00
21100;BME280;10708;50.824;4.408;2023-02-12T08:02:33;102888.78;;;8.09;100.00
21100;BME280;10708;50.824;4.408;2023-02-12T08:07:37;102895.81;;;8.11;100.00
21100;BME280;10708;50.824;4.408;2023-02-12T08:12:39;102885.22;;;8.02;100.00
21100;BME280;10708;50.824;4.408;2023-02-12T08:17:41;102891.44;;;8.07;100.00
21100;BME280;10708;50.824;4.408;2023-02-12T08:22:45;102906.41;;;8.18;100.00
21100;BME280;10708;50.824;4.408;2023-02-12T08:27:47;102901.09;;;8.13;100.00
21100;BME280;10708;50.824;4.408;2023-02-12T08:32:50;102895.09;;;8.23;100.00
21100;BME280;10708;50.824;4.408;2023-02-12T08:37:54;102895.13;;;8.26;100.00
21100;BME280;10708;50.824;4.408;2023-02-12T08:42:56;102893.41;;;8.30;100.00
21100;BME280;10708;50.824;4.408;2023-02-12T08:47:58;102899.41;;;8.20;100.00
21100;BME280;10708;50.824;4.408;2023-02-12T08:53:03;102902.13;;;8.26;100.00
21100;BME280;10708;50.824;4.408;2023-02-12T08:58:07;102903.28;;;8.50;100.00
21100;BME280;10708;50.824;4.408;2023-02-12T09:03:09;102899.84;;;8.56;100.00
21100;BME280;10708;50.824;4.408;2023-02-12T09:08:14;102899.09;;;8.71;100.00
21100;BME280;10708;50.824;4.408;2023-02-12T09:13:16;102897.44;;;8.82;100.00
21100;BME280;10708;50.824;4.408;2023-02-12T09:18:18;102903.63;;;8.90;100.00
21100;BME280;10708;50.824;4.408;2023-02-12T09:23:22;102900.09;;;8.85;100.00
21100;BME280;10708;50.824;4.408;2023-02-12T09:28:24;102888.81;;;8.97;100.00
21100;BME280;10708;50.824;4.408;2023-02-12T09:33:27;102908.97;;;8.99;100.00
21100;BME280;10708;50.824;4.408;2023-02-12T09:38:31;102899.25;;;8.87;100.00
21100;BME280;10708;50.824;4.408;2023-02-12T09:43:39;102903.63;;;8.88;100.00
21100;BME280;10708;50.824;4.408;2023-02-12T09:48:55;102907.06;;;8.81;100.00
21100;BME280;10708;50.824;4.408;2023-02-12T09:54:02;102910.53;;;8.79;100.00
21100;BME280;10708;50.824;4.408;2023-02-12T09:59:07;102911.38;;;8.72;100.00
21100;BME280;10708;50.824;4.408;2023-02-12T10:04:11;102925.34;;;8.69;100.00
21100;BME280;10708;50.824;4.408;2023-02-12T10:09:26;102922.63;;;8.60;100.00
21100;BME280;10708;50.824;4.408;2023-02-12T10:20:36;102926.94;;;8.52;100.00
21100;BME280;10708;50.824;4.408;2023-02-12T10:25:47;102926.06;;;8.51;100.00
21100;BME280;10708;50.824;4.408;2023-02-12T10:30:54;102926.06;;;8.53;100.00
21100;BME280;10708;50.824;4.408;2023-02-12T10:36:02;102931.41;;;8.62;100.00
21100;BME280;10708;50.824;4.408;2023-02-12T10:41:12;102927.97;;;8.68;100.00
21100;BME280;10708;50.824;4.408;2023-02-12T10:46:16;102924.47;;;8.70;100.00
21100;BME280;10708;50.824;4.408;2023-02-12T10:51:33;102918.50;;;8.85;100.00
21100;BME280;10708;50.824;4.408;2023-02-12T10:56:39;102913.28;;;8.91;100.00
21100;BME280;10708;50.824;4.408;2023-02-12T11:01:46;102900.94;;;8.81;100.00
21100;BME280;10708;50.824;4.408;2023-02-12T11:06:56;102904.44;;;8.81;100.00
21100;BME280;10708;50.824;4.408;2023-02-12T11:12:01;102904.41;;;8.78;100.00
21100;BME280;10708;50.824;4.408;2023-02-12T11:17:03;102896.53;;;8.77;100.00
21100;BME280;10708;50.824;4.408;2023-02-12T11:22:09;102896.63;;;8.91;100.00
21100;BME280;10708;50.824;4.408;2023-02-12T11:27:21;102892.28;;;8.94;100.00
21100;BME280;10708;50.824;4.408;2023-02-12T11:32:24;102888.72;;;8.89;100.00
21100;BME280;10708;50.824;4.408;2023-02-12T11:37:27;102892.34;;;9.02;100.00
21100;BME280;10708;50.824;4.408;2023-02-12T11:42:34;102874.81;;;9.02;100.00
21100;BME280;10708;50.824;4.408;2023-02-12T11:47:39;102875.75;;;9.12;100.00
21100;BME280;10708;50.824;4.408;2023-02-12T11:52:42;102877.50;;;9.08;100.00
21100;BME280;10708;50.824;4.408;2023-02-12T11:57:47;102867.78;;;9.00;100.00
21100;BME280;10708;50.824;4.408;2023-02-12T12:02:55;102866.03;;;8.99;100.00
21100;BME280;10708;50.824;4.408;2023-02-12T12:08:05;102855.59;;;9.09;100.00
21100;BME280;10708;50.824;4.408;2023-02-12T12:13:15;102853.91;;;9.17;100.00
21100;BME280;10708;50.824;4.408;2023-02-12T12:18:27;102850.34;;;9.12;100.00
21100;BME280;10708;50.824;4.408;2023-02-12T12:23:51;102842.38;;;8.97;100.00
21100;BME280;10708;50.824;4.408;2023-02-12T12:29:01;102840.56;;;8.92;100.00
21100;BME280;10708;50.824;4.408;2023-02-12T12:34:09;102838.09;;;9.08;100.00
21100;BME280;10708;50.824;4.408;2023-02-12T12:39:19;102840.59;;;8.93;100.00
21100;BME280;10708;50.824;4.408;2023-02-12T12:44:34;102830.91;;;8.86;100.00
21100;BME280;10708;50.824;4.408;2023-02-12T12:49:54;102821.22;;;8.82;100.00
21100;BME280;10708;50.824;4.408;2023-02-12T12:55:10;102817.75;;;8.84;100.00
21100;BME280;10708;50.824;4.408;2023-02-12T13:00:26;102809.03;;;8.87;100.00
21100;BME280;10708;50.824;4.408;2023-02-12T13:05:52;102808.09;;;8.82;100.00
21100;BME280;10708;50.824;4.408;2023-02-12T13:10:59;102805.34;;;8.65;100.00
21100;BME280;10708;50.824;4.408;2023-02-12T13:16:11;102799.28;;;8.74;100.00
21100;BME280;10708;50.824;4.408;2023-02-12T13:21:25;102790.56;;;8.76;100.00
21100;BME280;10708;50.824;4.408;2023-02-12T13:26:37;102795.81;;;8.79;100.00
21100;BME280;10708;50.824;4.408;2023-02-12T13:31:48;102787.94;;;8.78;100.00
21100;BME280;10708;50.824;4.408;2023-02-12T13:36:51;102772.16;;;8.79;100.00
21100;BME280;10708;50.824;4.408;2023-02-12T13:42:06;102760.78;;;8.80;100.00
21100;BME280;10708;50.824;4.408;2023-02-12T13:47:19;102770.31;;;8.63;100.00
21100;BME280;10708;50.824;4.408;2023-02-12T13:52:31;102759.94;;;8.83;100.00
21100;BME280;10708;50.824;4.408;2023-02-12T13:57:36;102766.03;;;8.77;100.00
21100;BME280;10708;50.824;4.408;2023-02-12T14:02:44;102762.56;;;8.89;100.00
21100;BME280;10708;50.824;4.408;2023-02-12T14:07:50;102756.44;;;8.88;100.00
21100;BME280;10708;50.824;4.408;2023-02-12T14:12:57;102760.00;;;8.94;100.00
21100;BME280;10708;50.824;4.408;2023-02-12T14:18:20;102762.56;;;8.89;100.00
21100;BME280;10708;50.824;4.408;2023-02-12T14:23:24;102749.44;;;8.86;100.00
21100;BME280;10708;50.824;4.408;2023-02-12T14:28:48;102750.31;;;8.85;100.00
21100;BME280;10708;50.824;4.408;2023-02-12T14:39:30;102744.16;;;8.81;100.00
21100;BME280;10708;50.824;4.408;2023-02-12T14:44:44;102742.38;;;8.74;100.00
21100;BME280;10708;50.824;4.408;2023-02-12T14:49:51;102738.84;;;8.74;100.00
21100;BME280;10708;50.824;4.408;2023-02-12T14:54:56;102743.25;;;8.76;100.00
21100;BME280;10708;50.824;4.408;2023-02-12T15:00:02;102739.72;;;8.68;100.00
21100;BME280;10708;50.824;4.408;2023-02-12T15:05:14;102739.75;;;8.76;100.00
21100;BME280;10708;50.824;4.408;2023-02-12T15:10:20;102734.44;;;8.71;100.00
21100;BME280;10708;50.824;4.408;2023-02-12T15:15:27;102724.88;;;8.76;100.00
21100;BME280;10708;50.824;4.408;2023-02-12T15:20:37;102731.81;;;8.71;100.00
21100;BME280;10708;50.824;4.408;2023-02-12T15:25:44;102733.53;;;8.65;100.00
21100;BME280;10708;50.824;4.408;2023-02-12T15:30:47;102723.88;;;8.62;100.00
21100;BME280;10708;50.824;4.408;2023-02-12T15:35:51;102729.97;;;8.54;100.00
21100;BME280;10708;50.824;4.408;2023-02-12T15:40:55;102731.72;;;8.55;100.00
21100;BME280;10708;50.824;4.408;2023-02-12T15:46:02;102711.53;;;8.50;100.00
21100;BME280;10708;50.824;4.408;2023-02-12T15:51:14;102715.94;;;8.53;100.00
21100;BME280;10708;50.824;4.408;2023-02-12T15:56:20;102713.28;;;8.47;100.00
21100;BME280;10708;50.824;4.408;2023-02-12T16:01:25;102722.84;;;8.37;100.00
21100;BME280;10708;50.824;4.408;2023-02-12T16:06:33;102722.03;;;8.44;100.00
21100;BME280;10708;50.824;4.408;2023-02-12T16:11:38;102715.94;;;8.53;100.00
21100;BME280;10708;50.824;4.408;2023-02-12T16:16:49;102708.06;;;8.53;100.00
21100;BME280;10708;50.824;4.408;2023-02-12T16:21:58;102707.16;;;8.45;100.00
21100;BME280;10708;50.824;4.408;2023-02-12T16:27:06;102712.41;;;8.46;100.00
21100;BME280;10708;50.824;4.408;2023-02-12T16:32:25;102709.78;;;8.49;100.00
21100;BME280;10708;50.824;4.408;2023-02-12T16:37:45;102708.91;;;8.46;100.00
21100;BME280;10708;50.824;4.408;2023-02-12T16:43:05;102697.47;;;8.36;100.00
21100;BME280;10708;50.824;4.408;2023-02-12T16:48:23;102705.34;;;8.39;100.00
21100;BME280;10708;50.824;4.408;2023-02-12T16:53:36;102693.97;;;8.37;100.00
21100;BME280;10708;50.824;4.408;2023-02-12T16:58:45;102693.00;;;8.31;100.00
21100;BME280;10708;50.824;4.408;2023-02-12T17:03:48;102700.09;;;8.38;100.00
21100;BME280;10708;50.824;4.408;2023-02-12T17:08:52;102699.13;;;8.28;100.00
21100;BME280;10708;50.824;4.408;2023-02-12T17:13:55;102692.06;;;8.24;100.00
21100;BME280;10708;50.824;4.408;2023-02-12T17:18:57;102700.84;;;8.29;100.00
21100;BME280;10708;50.824;4.408;2023-02-12T17:24:01;102697.34;;;8.30;100.00
21100;BME280;10708;50.824;4.408;2023-02-12T17:29:04;102697.44;;;8.33;100.00
21100;BME280;10708;50.824;4.408;2023-02-12T17:34:06;102699.94;;;8.24;100.00
21100;BME280;10708;50.824;4.408;2023-02-12T17:39:12;102712.22;;;8.27;100.00
21100;BME280;10708;50.824;4.408;2023-02-12T17:44:15;102705.22;;;8.30;100.00
21100;BME280;10708;50.824;4.408;2023-02-12T17:49:18;102703.50;;;8.28;100.00
21100;BME280;10708;50.824;4.408;2023-02-12T17:54:22;102707.84;;;8.29;100.00
21100;BME280;10708;50.824;4.408;2023-02-12T17:59:24;102706.97;;;8.25;100.00
21100;BME280;10708;50.824;4.408;2023-02-12T18:04:26;102706.13;;;8.28;100.00
21100;BME280;10708;50.824;4.408;2023-02-12T18:09:30;102701.69;;;8.24;100.00
21100;BME280;10708;50.824;4.408;2023-02-12T18:14:33;102699.06;;;8.22;100.00
21100;BME280;10708;50.824;4.408;2023-02-12T18:19:35;102697.28;;;8.21;100.00
21100;BME280;10708;50.824;4.408;2023-02-12T18:24:39;102688.59;;;8.25;100.00
21100;BME280;10708;50.824;4.408;2023-02-12T18:29:43;102684.16;;;8.20;100.00
21100;BME280;10708;50.824;4.408;2023-02-12T18:34:48;102685.03;;;8.22;100.00
21100;BME280;10708;50.824;4.408;2023-02-12T18:39:52;102678.91;;;8.17;100.00
21100;BME280;10708;50.824;4.408;2023-02-12T18:44:54;102681.53;;;8.18;100.00
21100;BME280;10708;50.824;4.408;2023-02-12T18:49:56;102685.00;;;8.14;100.00
21100;BME280;10708;50.824;4.408;2023-02-12T18:55:00;102684.16;;;8.17;100.00
21100;BME280;10708;50.824;4.408;2023-02-12T19:00:05;102685.91;;;8.21;100.00
21100;BME280;10708;50.824;4.408;2023-02-12T19:05:07;102686.78;;;8.21;100.00
21100;BME280;10708;50.824;4.408;2023-02-12T19:10:11;102681.53;;;8.20;100.00
21100;BME280;10708;50.824;4.408;2023-02-12T19:15:15;102693.81;;;8.22;100.00
21100;BME280;10708;50.824;4.408;2023-02-12T19:20:18;102683.28;;;8.16;100.00
21100;BME280;10708;50.824;4.408;2023-02-12T19:25:21;102681.53;;;8.20;100.00
21100;BME280;10708;50.824;4.408;2023-02-12T19:30:24;102696.44;;;8.22;100.00
21100;BME280;10708;50.824;4.408;2023-02-12T19:35:26;102691.16;;;8.21;100.00
21100;BME280;10708;50.824;4.408;2023-02-12T19:40:30;102685.06;;;8.23;100.00
21100;BME280;10708;50.824;4.408;2023-02-12T19:45:33;102687.72;;;8.26;100.00
21100;BME280;10708;50.824;4.408;2023-02-12T19:50:44;102675.41;;;8.21;100.00
21100;BME280;10708;50.824;4.408;2023-02-12T19:55:48;102678.06;;;8.22;100.00
21100;BME280;10708;50.824;4.408;2023-02-12T20:00:51;102679.81;;;8.23;100.00
21100;BME280;10708;50.824;4.408;2023-02-12T20:05:59;102678.94;;;8.23;100.00
21100;BME280;10708;50.824;4.408;2023-02-12T20:11:05;102679.81;;;8.23;100.00
21100;BME280;10708;50.824;4.408;2023-02-12T20:16:10;102680.66;;;8.21;100.00
21100;BME280;10708;50.824;4.408;2023-02-12T20:21:17;102680.69;;;8.24;100.00
21100;BME280;10708;50.824;4.408;2023-02-12T20:26:21;102678.03;;;8.19;100.00
21100;BME280;10708;50.824;4.408;2023-02-12T20:31:25;102682.41;;;8.22;100.00
21100;BME280;10708;50.824;4.408;2023-02-12T20:36:29;102682.47;;;8.25;100.00
21100;BME280;10708;50.824;4.408;2023-02-12T20:41:34;102681.56;;;8.23;100.00
21100;BME280;10708;50.824;4.408;2023-02-12T20:46:37;102679.78;;;8.20;100.00
21100;BME280;10708;50.824;4.408;2023-02-12T20:51:42;102678.88;;;8.15;100.00
21100;BME280;10708;50.824;4.408;2023-02-12T20:56:47;102680.53;;;8.02;100.00
21100;BME280;10708;50.824;4.408;2023-02-12T21:01:50;102690.88;;;7.89;100.00
21100;BME280;10708;50.824;4.408;2023-02-12T21:06:52;102694.31;;;7.80;100.00
21100;BME280;10708;50.824;4.408;2023-02-12T21:11:56;102693.31;;;7.69;100.00
21100;BME280;10708;50.824;4.408;2023-02-12T21:16:59;102701.09;;;7.60;100.00
21100;BME280;10708;50.824;4.408;2023-02-12T21:22:01;102692.25;;;7.49;100.00
21100;BME280;10708;50.824;4.408;2023-02-12T21:27:05;102689.53;;;7.39;100.00
21100;BME280;10708;50.824;4.408;2023-02-12T21:32:07;102692.06;;;7.32;100.00
21100;BME280;10708;50.824;4.408;2023-02-12T21:37:10;102692.84;;;7.23;100.00
21100;BME280;10708;50.824;4.408;2023-02-12T21:42:14;102694.50;;;7.15;100.00
21100;BME280;10708;50.824;4.408;2023-02-12T21:47:16;102692.66;;;7.10;100.00
21100;BME280;10708;50.824;4.408;2023-02-12T21:52:19;102696.97;;;7.03;100.00
21100;BME280;10708;50.824;4.408;2023-02-12T21:57:23;102692.50;;;6.96;100.00
21100;BME280;10708;50.824;4.408;2023-02-12T22:02:25;102688.03;;;6.87;100.00
21100;BME280;10708;50.824;4.408;2023-02-12T22:07:27;102676.56;;;6.81;100.00
21100;BME280;10708;50.824;4.408;2023-02-12T22:12:32;102678.22;;;6.73;100.00
21100;BME280;10708;50.824;4.408;2023-02-12T22:17:35;102678.94;;;6.62;100.00
21100;BME280;10708;50.824;4.408;2023-02-12T22:22:38;102688.47;;;6.56;100.00
21100;BME280;10708;50.824;4.408;2023-02-12T22:27:42;102683.06;;;6.45;100.00
21100;BME280;10708;50.824;4.408;2023-02-12T22:32:44;102673.28;;;6.34;100.00
21100;BME280;10708;50.824;4.408;2023-02-12T22:37:47;102674.94;;;6.27;100.00
21100;BME280;10708;50.824;4.408;2023-02-12T22:42:50;102678.25;;;6.15;100.00
21100;BME280;10708;50.824;4.408;2023-02-12T22:47:53;102676.38;;;6.07;100.00
21100;BME280;10708;50.824;4.408;2023-02-12T22:52:55;102668.38;;;5.98;100.00
21100;BME280;10708;50.824;4.408;2023-02-12T22:57:59;102679.59;;;5.92;100.00
21100;BME280;10708;50.824;4.408;2023-02-12T23:03:01;102674.22;;;5.84;100.00
21100;BME280;10708;50.824;4.408;2023-02-12T23:08:04;102681.09;;;5.79;100.00
21100;BME280;10708;50.824;4.408;2023-02-12T23:13:08;102681.84;;;5.72;100.00
21100;BME280;10708;50.824;4.408;2023-02-12T23:18:10;102677.38;;;5.65;100.00
21100;BME280;10708;50.824;4.408;2023-02-12T23:23:13;102676.38;;;5.60;100.00
21100;BME280;10708;50.824;4.408;2023-02-12T23:28:16;102672.78;;;5.53;100.00
21100;BME280;10708;50.824;4.408;2023-02-12T23:33:19;102669.22;;;5.50;100.00
21100;BME280;10708;50.824;4.408;2023-02-12T23:38:21;102657.78;;;5.43;100.00
21100;BME280;10708;50.824;4.408;2023-02-12T23:43:25;102658.59;;;5.41;100.00
21100;BME280;10708;50.824;4.408;2023-02-12T23:48:27;102649.81;;;5.36;100.00
21100;BME280;10708;50.824;4.408;2023-02-12T23:53:30;102640.19;;;5.33;100.00
21100;BME280;10708;50.824;4.408;2023-02-12T23:58:33;102643.56;;;5.29;100.00
